createdAt,value
2024-05-09T00:00:36.128Z,102727.68
2024-05-09T00:02:01.384Z,102731.70
2024-05-09T00:03:06.249Z,102726.75
2024-05-09T00:04:08.244Z,102726.41
2024-05-09T00:05:10.713Z,102730.53
2024-05-09T00:06:12.632Z,102728.84
2024-05-09T00:07:14.225Z,102730.48
2024-05-09T00:08:15.867Z,102728.56
2024-05-09T00:09:17.388Z,102731.34
2024-05-09T00:10:25.524Z,102732.30
2024-05-09T00:11:40.174Z,102733.25
2024-05-09T00:12:42.013Z,102734.41
2024-05-09T00:13:43.671Z,102731.91
2024-05-09T00:14:45.162Z,102730.23
2024-05-09T00:15:46.715Z,102728.84
2024-05-09T00:16:49.022Z,102727.71
2024-05-09T00:17:50.755Z,102727.58
2024-05-09T00:18:52.673Z,102724.59
2024-05-09T00:19:54.592Z,102724.59
2024-05-09T00:20:56.135Z,102724.70
2024-05-09T00:21:57.708Z,102724.76
2024-05-09T00:22:59.296Z,102725.90
2024-05-09T00:24:00.854Z,102722.11
2024-05-09T00:25:02.547Z,102721.15
2024-05-09T00:26:04.551Z,102724.58
2024-05-09T00:27:06.147Z,102719.73
2024-05-09T00:28:07.812Z,102720.02
2024-05-09T00:29:09.631Z,102721.64
2024-05-09T00:30:17.486Z,102722.17
2024-05-09T00:31:25.156Z,102723.30
2024-05-09T00:32:26.897Z,102727.12
2024-05-09T00:33:28.895Z,102725.68
2024-05-09T00:34:30.811Z,102729.16
2024-05-09T00:35:32.693Z,102727.23
2024-05-09T00:36:34.328Z,102725.66
2024-05-09T00:37:35.861Z,102726.16
2024-05-09T00:38:37.580Z,102728.44
2024-05-09T00:39:39.151Z,102724.13
2024-05-09T00:40:42.726Z,102725.87
2024-05-09T00:41:45.809Z,102724.32
2024-05-09T00:42:47.454Z,102726.27
2024-05-09T00:43:49.056Z,102725.64
2024-05-09T00:44:50.736Z,102723.61
2024-05-09T00:45:54.397Z,102727.04
2024-05-09T00:46:56.954Z,102726.61
2024-05-09T00:48:01.869Z,102723.23
2024-05-09T00:49:04.692Z,102725.63
2024-05-09T00:50:12.620Z,102719.61
2024-05-09T00:51:17.734Z,102718.34
2024-05-09T00:52:20.833Z,102720.09
2024-05-09T00:53:23.521Z,102720.14
2024-05-09T00:54:26.459Z,102719.94
2024-05-09T00:55:28.930Z,102718.91
2024-05-09T00:56:33.487Z,102717.27
2024-05-09T00:57:35.268Z,102716.60
2024-05-09T00:58:37.719Z,102713.50
2024-05-09T00:59:39.846Z,102714.09
2024-05-09T01:00:42.308Z,102709.15
2024-05-09T01:01:45.343Z,102718.09
2024-05-09T01:02:47.156Z,102713.70
2024-05-09T01:03:51.282Z,102717.48
2024-05-09T01:04:53.419Z,102710.31
2024-05-09T01:05:55.195Z,102713.45
2024-05-09T01:06:56.824Z,102714.65
2024-05-09T01:07:58.532Z,102712.48
2024-05-09T01:09:00.253Z,102712.98
2024-05-09T01:10:01.767Z,102709.70
2024-05-09T01:11:04.244Z,102709.67
2024-05-09T01:12:06.375Z,102704.77
2024-05-09T01:13:08.122Z,102700.88
2024-05-09T01:14:09.733Z,102703.64
2024-05-09T01:15:11.370Z,102703.48
2024-05-09T01:16:13.195Z,102697.23
2024-05-09T01:17:15.062Z,102696.34
2024-05-09T01:18:17.070Z,102702.73
2024-05-09T01:19:27.670Z,102699.79
2024-05-09T01:20:39.546Z,102698.77
2024-05-09T01:21:44.506Z,102699.05
2024-05-09T01:22:47.034Z,102696.90
2024-05-09T01:23:48.784Z,102695.49
2024-05-09T01:24:51.367Z,102696.42
2024-05-09T01:25:52.960Z,102697.63
2024-05-09T01:26:54.546Z,102695.69
2024-05-09T01:27:56.109Z,102697.83
2024-05-09T01:28:58.061Z,102699.48
2024-05-09T01:29:59.610Z,102702.75
2024-05-09T01:31:26.917Z,102703.45
2024-05-09T01:32:29.216Z,102700.80
2024-05-09T01:33:31.346Z,102701.94
2024-05-09T01:34:32.998Z,102701.20
2024-05-09T01:35:34.621Z,102699.27
2024-05-09T01:36:36.405Z,102698.95
2024-05-09T01:37:39.690Z,102693.98
2024-05-09T01:38:41.359Z,102695.21
2024-05-09T01:39:43.239Z,102697.83
2024-05-09T01:40:47.738Z,102693.69
2024-05-09T01:41:49.308Z,102696.96
2024-05-09T01:42:50.868Z,102694.39
2024-05-09T01:43:52.544Z,102692.33
2024-05-09T01:44:54.085Z,102692.20
2024-05-09T01:45:55.680Z,102693.23
2024-05-09T01:46:57.227Z,102694.76
2024-05-09T01:47:59.325Z,102696.83
2024-05-09T01:49:01.367Z,102699.23
2024-05-09T01:50:05.097Z,102702.80
2024-05-09T01:51:09.594Z,102702.20
2024-05-09T01:52:11.275Z,102698.58
2024-05-09T01:53:14.574Z,102701.36
2024-05-09T01:54:16.817Z,102700.70
2024-05-09T01:55:18.822Z,102703.60
2024-05-09T01:56:20.325Z,102702.90
2024-05-09T01:57:21.792Z,102704.34
2024-05-09T01:58:24.268Z,102708.13
2024-05-09T01:59:25.992Z,102708.08
2024-05-09T02:00:37.393Z,102711.61
2024-05-09T02:01:56.411Z,102708.13
2024-05-09T02:02:59.722Z,102708.86
2024-05-09T02:04:01.694Z,102711.56
2024-05-09T02:05:03.905Z,102708.89
2024-05-09T02:06:05.799Z,102710.05
2024-05-09T02:07:07.428Z,102707.79
2024-05-09T02:08:16.369Z,102705.86
2024-05-09T02:09:18.185Z,102709.14
2024-05-09T02:10:26.177Z,102703.83
2024-05-09T02:11:41.931Z,102700.27
2024-05-09T02:12:43.483Z,102699.72
2024-05-09T02:13:45.205Z,102695.67
2024-05-09T02:14:46.766Z,102696.31
2024-05-09T02:15:51.438Z,102699.70
2024-05-09T02:16:53.003Z,102697.23
2024-05-09T02:17:54.841Z,102694.35
2024-05-09T02:18:57.144Z,102704.23
2024-05-09T02:19:58.807Z,102697.52
2024-05-09T02:21:00.582Z,102697.52
2024-05-09T02:22:02.448Z,102698.92
2024-05-09T02:23:05.506Z,102695.58
2024-05-09T02:24:07.530Z,102693.38
2024-05-09T02:25:09.192Z,102694.62
2024-05-09T02:26:10.784Z,102693.38
2024-05-09T02:27:12.310Z,102689.77
2024-05-09T02:28:13.832Z,102687.51
2024-05-09T02:29:15.447Z,102688.52
2024-05-09T02:30:26.204Z,102685.88
2024-05-09T02:31:37.310Z,102684.66
2024-05-09T02:32:39.091Z,102681.88
2024-05-09T02:33:40.960Z,102682.84
2024-05-09T02:34:42.736Z,102681.84
2024-05-09T02:35:44.589Z,102682.64
2024-05-09T02:36:46.218Z,102679.13
2024-05-09T02:37:47.832Z,102685.06
2024-05-09T02:38:49.420Z,102681.92
2024-05-09T02:39:50.875Z,102685.27
2024-05-09T02:40:52.513Z,102687.34
2024-05-09T02:41:54.143Z,102685.84
2024-05-09T02:42:55.639Z,102683.83
2024-05-09T02:43:57.154Z,102680.93
2024-05-09T02:44:58.659Z,102678.20
2024-05-09T02:46:00.359Z,102680.29
2024-05-09T02:47:01.935Z,102680.65
2024-05-09T02:48:04.162Z,102680.91
2024-05-09T02:49:06.106Z,102680.14
2024-05-09T02:50:08.363Z,102676.88
2024-05-09T02:51:10.193Z,102678.48
2024-05-09T02:52:14.624Z,102675.21
2024-05-09T02:53:16.256Z,102672.30
2024-05-09T02:54:17.878Z,102669.95
2024-05-09T02:55:19.490Z,102667.89
2024-05-09T02:56:21.074Z,102667.09
2024-05-09T02:57:22.783Z,102665.58
2024-05-09T02:58:24.352Z,102667.94
2024-05-09T02:59:26.021Z,102664.74
2024-05-09T03:00:36.653Z,102663.79
2024-05-09T03:01:41.780Z,102663.50
2024-05-09T03:02:46.336Z,102662.09
2024-05-09T03:03:50.329Z,102662.09
2024-05-09T03:04:52.135Z,102663.17
2024-05-09T03:05:53.946Z,102661.73
2024-05-09T03:06:55.740Z,102663.14
2024-05-09T03:07:57.251Z,102663.39
2024-05-09T03:09:00.279Z,102661.14
2024-05-09T03:10:01.929Z,102665.10
2024-05-09T03:11:03.786Z,102664.83
2024-05-09T03:12:06.609Z,102665.45
2024-05-09T03:13:10.789Z,102667.10
2024-05-09T03:14:16.333Z,102668.89
2024-05-09T03:15:18.088Z,102668.16
2024-05-09T03:16:19.680Z,102665.03
2024-05-09T03:17:23.159Z,102670.01
2024-05-09T03:18:24.750Z,102668.44
2024-05-09T03:19:26.426Z,102665.06
2024-05-09T03:20:33.976Z,102666.02
2024-05-09T03:21:39.382Z,102666.43
2024-05-09T03:22:41.002Z,102668.31
2024-05-09T03:23:43.361Z,102667.75
2024-05-09T03:24:45.069Z,102672.05
2024-05-09T03:25:46.703Z,102671.02
2024-05-09T03:26:48.300Z,102671.64
2024-05-09T03:27:49.877Z,102670.84
2024-05-09T03:28:51.530Z,102672.33
2024-05-09T03:29:53.296Z,102674.08
2024-05-09T03:30:55.437Z,102675.48
2024-05-09T03:32:00.059Z,102677.42
2024-05-09T03:33:01.954Z,102677.10
2024-05-09T03:34:03.730Z,102681.71
2024-05-09T03:35:05.784Z,102679.92
2024-05-09T03:36:10.949Z,102680.20
2024-05-09T03:37:13.739Z,102681.81
2024-05-09T03:38:15.487Z,102680.09
2024-05-09T03:39:17.187Z,102678.60
2024-05-09T03:40:23.660Z,102678.83
2024-05-09T03:41:28.143Z,102678.34
2024-05-09T03:42:29.690Z,102673.39
2024-05-09T03:43:31.362Z,102674.04
2024-05-09T03:44:33.052Z,102673.61
2024-05-09T03:45:34.661Z,102668.13
2024-05-09T03:46:39.949Z,102663.36
2024-05-09T03:47:41.851Z,102664.91
2024-05-09T03:48:43.801Z,102664.71
2024-05-09T03:49:45.827Z,102667.02
2024-05-09T03:50:47.662Z,102667.23
2024-05-09T03:51:49.249Z,102665.85
2024-05-09T03:52:51.089Z,102666.42
2024-05-09T03:53:52.755Z,102666.86
2024-05-09T03:54:54.370Z,102666.10
2024-05-09T03:55:56.589Z,102669.62
2024-05-09T03:56:58.115Z,102666.17
2024-05-09T03:57:59.858Z,102668.74
2024-05-09T03:59:01.584Z,102667.19
2024-05-09T04:00:05.539Z,102666.96
2024-05-09T04:01:16.619Z,102668.90
2024-05-09T04:02:18.304Z,102664.77
2024-05-09T04:03:20.065Z,102668.21
2024-05-09T04:04:21.998Z,102668.45
2024-05-09T04:05:25.028Z,102667.19
2024-05-09T04:06:27.581Z,102668.82
2024-05-09T04:07:29.164Z,102670.59
2024-05-09T04:08:30.920Z,102670.43
2024-05-09T04:09:32.489Z,102672.34
2024-05-09T04:10:35.120Z,102669.52
2024-05-09T04:11:37.169Z,102668.99
2024-05-09T04:12:38.811Z,102667.98
2024-05-09T04:13:40.615Z,102671.22
2024-05-09T04:14:42.362Z,102666.54
2024-05-09T04:15:44.091Z,102668.32
2024-05-09T04:16:45.679Z,102667.33
2024-05-09T04:17:50.669Z,102668.20
2024-05-09T04:18:52.578Z,102667.48
2024-05-09T04:19:55.230Z,102670.37
2024-05-09T04:20:58.801Z,102670.60
2024-05-09T04:22:00.411Z,102668.96
2024-05-09T04:23:02.133Z,102666.79
2024-05-09T04:24:04.142Z,102669.52
2024-05-09T04:25:06.029Z,102670.29
2024-05-09T04:26:08.221Z,102667.11
2024-05-09T04:27:09.942Z,102665.08
2024-05-09T04:28:11.756Z,102663.52
2024-05-09T04:29:13.590Z,102664.63
2024-05-09T04:30:21.860Z,102666.00
2024-05-09T04:31:36.107Z,102664.56
2024-05-09T04:32:37.853Z,102668.10
2024-05-09T04:33:39.549Z,102666.71
2024-05-09T04:34:41.414Z,102667.40
2024-05-09T04:35:43.707Z,102664.67
2024-05-09T04:36:45.623Z,102666.83
2024-05-09T04:37:48.361Z,102667.30
2024-05-09T04:38:50.047Z,102665.08
2024-05-09T04:39:51.672Z,102663.98
2024-05-09T04:40:53.407Z,102663.98
2024-05-09T04:41:55.069Z,102658.46
2024-05-09T04:42:56.650Z,102657.30
2024-05-09T04:43:58.501Z,102653.69
2024-05-09T04:45:00.266Z,102655.02
2024-05-09T04:46:01.957Z,102654.27
2024-05-09T04:47:03.840Z,102655.98
2024-05-09T04:48:06.477Z,102655.52
2024-05-09T04:49:08.374Z,102654.56
2024-05-09T04:50:14.501Z,102654.90
2024-05-09T04:51:16.300Z,102651.55
2024-05-09T04:52:17.909Z,102653.02
2024-05-09T04:53:19.667Z,102655.57
2024-05-09T04:54:30.463Z,102654.23
2024-05-09T04:55:38.443Z,102651.48
2024-05-09T04:56:40.285Z,102651.98
2024-05-09T04:57:41.785Z,102648.49
2024-05-09T04:58:43.350Z,102648.52
2024-05-09T04:59:44.933Z,102649.98
2024-05-09T05:00:46.562Z,102650.63
2024-05-09T05:01:48.210Z,102647.30
2024-05-09T05:02:49.864Z,102650.73
2024-05-09T05:03:51.734Z,102653.50
2024-05-09T05:04:54.007Z,102653.86
2024-05-09T05:05:55.976Z,102657.42
2024-05-09T05:06:59.747Z,102659.14
2024-05-09T05:08:03.128Z,102660.91
2024-05-09T05:09:05.200Z,102663.98
2024-05-09T05:10:09.344Z,102663.09
2024-05-09T05:11:13.844Z,102664.30
2024-05-09T05:12:47.830Z,102664.78
2024-05-09T05:13:49.851Z,102664.37
2024-05-09T05:14:51.380Z,102664.92
2024-05-09T05:15:55.099Z,102665.05
2024-05-09T05:16:56.829Z,102666.55
2024-05-09T05:17:58.498Z,102664.28
2024-05-09T05:19:00.434Z,102665.09
2024-05-09T05:20:04.096Z,102662.70
2024-05-09T05:21:06.628Z,102660.56
2024-05-09T05:22:08.612Z,102664.55
2024-05-09T05:23:12.601Z,102660.92
2024-05-09T05:24:14.495Z,102659.11
2024-05-09T05:25:15.994Z,102656.36
2024-05-09T05:26:19.573Z,102658.25
2024-05-09T05:27:21.294Z,102657.08
2024-05-09T05:28:23.063Z,102658.34
2024-05-09T05:29:24.736Z,102656.69
2024-05-09T05:30:29.365Z,102655.62
2024-05-09T05:31:35.920Z,102654.65
2024-05-09T05:32:37.610Z,102655.63
2024-05-09T05:33:39.506Z,102650.60
2024-05-09T05:34:41.138Z,102647.85
2024-05-09T05:35:43.476Z,102646.89
2024-05-09T05:36:45.174Z,102648.50
2024-05-09T05:37:46.905Z,102647.54
2024-05-09T05:38:48.697Z,102647.00
2024-05-09T05:39:50.322Z,102646.97
2024-05-09T05:40:51.946Z,102647.29
2024-05-09T05:41:53.477Z,102645.83
2024-05-09T05:42:55.045Z,102645.59
2024-05-09T05:43:56.711Z,102643.88
2024-05-09T05:44:58.224Z,102643.33
2024-05-09T05:45:59.725Z,102640.94
2024-05-09T05:47:01.411Z,102639.61
2024-05-09T05:48:04.531Z,102638.98
2024-05-09T05:49:06.525Z,102637.38
2024-05-09T05:50:20.462Z,102633.98
2024-05-09T05:51:28.438Z,102629.95
2024-05-09T05:52:29.965Z,102631.10
2024-05-09T05:53:31.688Z,102630.63
2024-05-09T05:54:33.252Z,102632.70
2024-05-09T05:55:41.314Z,102635.11
2024-05-09T05:56:43.019Z,102631.98
2024-05-09T05:57:44.600Z,102636.29
2024-05-09T05:58:46.288Z,102633.95
2024-05-09T05:59:47.866Z,102631.17
2024-05-09T06:00:52.560Z,102635.02
2024-05-09T06:01:54.234Z,102632.77
2024-05-09T06:02:57.670Z,102632.98
2024-05-09T06:03:59.540Z,102634.26
2024-05-09T06:05:02.136Z,102634.48
2024-05-09T06:06:04.293Z,102632.16
2024-05-09T06:07:05.955Z,102633.83
2024-05-09T06:08:07.803Z,102629.45
2024-05-09T06:09:09.477Z,102635.09
2024-05-09T06:10:17.366Z,102633.91
2024-05-09T06:11:23.643Z,102633.10
2024-05-09T06:12:25.589Z,102627.72
2024-05-09T06:13:27.384Z,102625.55
2024-05-09T06:14:28.999Z,102628.08
2024-05-09T06:15:30.602Z,102628.90
2024-05-09T06:16:32.270Z,102627.29
2024-05-09T06:17:33.910Z,102627.45
2024-05-09T06:18:35.692Z,102628.05
2024-05-09T06:19:37.516Z,102620.38
2024-05-09T06:20:40.838Z,102622.85
2024-05-09T06:21:42.474Z,102623.59
2024-05-09T06:22:44.094Z,102628.37
2024-05-09T06:23:46.975Z,102626.77
2024-05-09T06:24:48.729Z,102628.33
2024-05-09T06:25:50.412Z,102629.52
2024-05-09T06:26:52.065Z,102627.38
2024-05-09T06:27:53.588Z,102632.31
2024-05-09T06:28:55.378Z,102627.05
2024-05-09T06:29:56.950Z,102625.00
2024-05-09T06:31:00.938Z,102624.21
2024-05-09T06:32:02.742Z,102622.46
2024-05-09T06:33:05.044Z,102628.67
2024-05-09T06:34:07.241Z,102627.97
2024-05-09T06:35:09.007Z,102622.69
2024-05-09T06:36:10.596Z,102625.16
2024-05-09T06:37:12.232Z,102620.89
2024-05-09T06:38:14.155Z,102620.25
2024-05-09T06:39:15.812Z,102617.31
2024-05-09T06:40:21.449Z,102619.65
2024-05-09T06:41:27.078Z,102616.75
2024-05-09T06:42:28.752Z,102616.74
2024-05-09T06:43:30.354Z,102614.18
2024-05-09T06:44:31.938Z,102614.41
2024-05-09T06:45:33.496Z,102616.20
2024-05-09T06:46:36.655Z,102612.73
2024-05-09T06:47:38.396Z,102610.64
2024-05-09T06:48:42.069Z,102606.72
2024-05-09T06:49:43.936Z,102606.90
2024-05-09T06:50:45.673Z,102604.72
2024-05-09T06:51:47.293Z,102611.80
2024-05-09T06:52:49.230Z,102606.14
2024-05-09T06:53:50.894Z,102602.17
2024-05-09T06:54:52.518Z,102604.20
2024-05-09T06:55:54.103Z,102602.96
2024-05-09T06:56:55.729Z,102604.04
2024-05-09T06:57:57.452Z,102599.77
2024-05-09T06:58:59.048Z,102601.58
2024-05-09T07:00:00.905Z,102598.73
2024-05-09T07:01:03.258Z,102593.79
2024-05-09T07:02:04.839Z,102596.21
2024-05-09T07:03:17.855Z,102596.09
2024-05-09T07:04:21.208Z,102595.52
2024-05-09T07:05:23.089Z,102596.02
2024-05-09T07:06:24.743Z,102591.58
2024-05-09T07:07:26.257Z,102591.66
2024-05-09T07:08:27.945Z,102587.94
2024-05-09T07:09:29.654Z,102588.70
2024-05-09T07:10:35.198Z,102587.63
2024-05-09T07:11:37.874Z,102586.80
2024-05-09T07:12:39.637Z,102584.70
2024-05-09T07:13:41.405Z,102588.66
2024-05-09T07:14:42.939Z,102589.63
2024-05-09T07:15:44.635Z,102590.20
2024-05-09T07:16:46.333Z,102589.66
2024-05-09T07:17:48.482Z,102589.91
2024-05-09T07:18:54.274Z,102591.63
2024-05-09T07:19:55.887Z,102588.34
2024-05-09T07:20:57.564Z,102586.87
2024-05-09T07:21:59.281Z,102588.55
2024-05-09T07:23:02.378Z,102586.45
2024-05-09T07:24:04.362Z,102584.85
2024-05-09T07:25:06.108Z,102579.93
2024-05-09T07:26:07.787Z,102586.33
2024-05-09T07:27:09.339Z,102583.13
2024-05-09T07:28:13.598Z,102581.46
2024-05-09T07:29:15.512Z,102580.77
2024-05-09T07:30:23.566Z,102579.41
2024-05-09T07:31:31.920Z,102582.77
2024-05-09T07:32:33.654Z,102580.65
2024-05-09T07:33:35.566Z,102579.65
2024-05-09T07:34:37.158Z,102576.86
2024-05-09T07:35:39.155Z,102580.02
2024-05-09T07:36:40.701Z,102574.39
2024-05-09T07:37:42.342Z,102577.50
2024-05-09T07:38:44.067Z,102575.05
2024-05-09T07:39:45.828Z,102572.02
2024-05-09T07:40:47.823Z,102572.60
2024-05-09T07:41:49.514Z,102568.45
2024-05-09T07:42:51.167Z,102567.73
2024-05-09T07:43:52.744Z,102566.19
2024-05-09T07:44:55.543Z,102570.90
2024-05-09T07:46:13.197Z,102564.94
2024-05-09T07:48:29.276Z,102567.58
2024-05-09T07:51:32.562Z,102563.81
2024-05-09T07:53:29.810Z,102566.55
2024-05-09T07:53:45.407Z,102561.71
2024-05-09T07:54:50.553Z,102560.77
2024-05-09T07:55:52.457Z,102559.52
2024-05-09T07:56:54.540Z,102556.67
2024-05-09T07:57:56.958Z,102556.12
2024-05-09T07:58:58.607Z,102561.05
2024-05-09T08:00:00.352Z,102559.18
2024-05-09T08:01:02.049Z,102558.04
2024-05-09T08:02:04.856Z,102556.98
2024-05-09T08:03:06.632Z,102561.10
2024-05-09T08:04:08.429Z,102555.30
2024-05-09T08:05:10.221Z,102553.37
2024-05-09T08:06:11.847Z,102548.73
2024-05-09T08:07:13.457Z,102551.55
2024-05-09T08:08:15.175Z,102549.18
2024-05-09T08:09:20.663Z,102545.22
2024-05-09T08:10:27.447Z,102548.41
2024-05-09T08:11:32.059Z,102543.84
2024-05-09T08:12:33.654Z,102544.02
2024-05-09T08:13:35.226Z,102548.38
2024-05-09T08:14:36.697Z,102548.69
2024-05-09T08:15:38.776Z,102550.77
2024-05-09T08:16:40.379Z,102550.52
2024-05-09T08:17:42.011Z,102546.94
2024-05-09T08:18:43.638Z,102549.15
2024-05-09T08:19:45.294Z,102548.15
2024-05-09T08:20:48.107Z,102550.02
2024-05-09T08:21:49.734Z,102545.10
2024-05-09T08:22:51.416Z,102548.26
2024-05-09T08:23:53.046Z,102546.59
2024-05-09T08:24:54.672Z,102549.48
2024-05-09T08:25:56.232Z,102548.45
2024-05-09T08:26:57.848Z,102547.67
2024-05-09T08:27:59.611Z,102548.98
2024-05-09T08:29:01.782Z,102550.75
2024-05-09T08:30:03.978Z,102549.38
2024-05-09T08:31:07.192Z,102547.79
2024-05-09T08:32:12.447Z,102549.70
2024-05-09T08:33:14.341Z,102550.11
2024-05-09T08:34:16.056Z,102550.36
2024-05-09T08:35:17.704Z,102550.77
2024-05-09T08:36:19.406Z,102550.73
2024-05-09T08:37:23.490Z,102553.06
2024-05-09T08:38:27.654Z,102550.19
2024-05-09T08:39:29.349Z,102546.77
2024-05-09T08:40:35.274Z,102548.52
2024-05-09T08:41:41.909Z,102546.02
2024-05-09T08:42:51.815Z,102547.27
2024-05-09T08:43:53.588Z,102548.92
2024-05-09T08:44:55.794Z,102544.71
2024-05-09T08:45:58.779Z,102541.35
2024-05-09T08:47:01.185Z,102545.50
2024-05-09T08:48:07.115Z,102545.75
2024-05-09T08:49:09.569Z,102548.23
2024-05-09T08:50:28.488Z,102544.67
2024-05-09T08:51:36.635Z,102545.48
2024-05-09T08:52:38.439Z,102543.52
2024-05-09T08:53:40.022Z,102542.46
2024-05-09T08:54:41.650Z,102543.43
2024-05-09T08:55:48.807Z,102545.56
2024-05-09T08:56:50.736Z,102548.61
2024-05-09T08:57:52.973Z,102544.23
2024-05-09T08:59:00.255Z,102544.92
2024-05-09T09:00:07.902Z,102541.72
2024-05-09T09:01:13.615Z,102541.23
2024-05-09T09:02:17.208Z,102540.49
2024-05-09T09:03:22.648Z,102535.86
2024-05-09T09:04:26.893Z,102535.23
2024-05-09T09:05:30.859Z,102532.33
2024-05-09T09:06:35.721Z,102536.50
2024-05-09T09:07:38.625Z,102533.59
2024-05-09T09:08:40.519Z,102531.52
2024-05-09T09:09:44.629Z,102528.98
2024-05-09T09:10:47.410Z,102532.84
2024-05-09T09:11:49.121Z,102530.85
2024-05-09T09:12:57.240Z,102531.20
2024-05-09T09:13:58.959Z,102527.95
2024-05-09T09:15:00.595Z,102527.05
2024-05-09T09:16:02.997Z,102523.00
2024-05-09T09:17:15.266Z,102520.88
2024-05-09T09:18:18.379Z,102521.13
2024-05-09T09:19:22.500Z,102518.25
2024-05-09T09:20:34.148Z,102517.95
2024-05-09T09:21:38.521Z,102516.64
2024-05-09T09:22:39.994Z,102522.12
2024-05-09T09:23:42.676Z,102522.27
2024-05-09T09:24:45.003Z,102522.27
2024-05-09T09:25:46.810Z,102519.23
2024-05-09T09:26:48.676Z,102514.11
2024-05-09T09:27:50.312Z,102515.94
2024-05-09T09:28:52.289Z,102515.19
2024-05-09T09:29:56.210Z,102512.56
2024-05-09T09:31:02.560Z,102510.89
2024-05-09T09:32:04.802Z,102509.34
2024-05-09T09:33:08.932Z,102509.94
2024-05-09T09:34:10.730Z,102512.27
2024-05-09T09:35:12.447Z,102513.07
2024-05-09T09:36:14.063Z,102511.06
2024-05-09T09:37:22.620Z,102513.20
2024-05-09T09:38:30.211Z,102506.77
2024-05-09T09:39:35.961Z,102505.61
2024-05-09T09:40:45.771Z,102503.86
2024-05-09T09:41:52.634Z,102506.19
2024-05-09T09:42:57.309Z,102503.35
2024-05-09T09:44:01.169Z,102503.19
2024-05-09T09:45:05.365Z,102509.52
2024-05-09T09:46:12.739Z,102507.03
2024-05-09T09:47:16.350Z,102505.52
2024-05-09T09:48:19.604Z,102501.89
2024-05-09T09:49:24.902Z,102497.73
2024-05-09T09:50:33.683Z,102502.17
2024-05-09T09:51:42.948Z,102502.30
2024-05-09T09:52:45.801Z,102498.59
2024-05-09T09:53:51.713Z,102500.34
2024-05-09T09:54:54.978Z,102502.75
2024-05-09T09:55:58.271Z,102503.89
2024-05-09T09:57:00.413Z,102503.13
2024-05-09T09:58:04.019Z,102500.54
2024-05-09T09:59:06.238Z,102497.80
2024-05-09T10:00:11.909Z,102500.75
2024-05-09T10:01:16.427Z,102490.45
2024-05-09T10:02:18.199Z,102493.80
2024-05-09T10:03:20.312Z,102497.92
2024-05-09T10:04:23.243Z,102491.56
2024-05-09T10:05:25.933Z,102494.30
2024-05-09T10:06:28.997Z,102493.16
2024-05-09T10:07:31.641Z,102489.63
2024-05-09T10:08:35.556Z,102495.39
2024-05-09T10:09:37.177Z,102495.20
2024-05-09T10:10:39.347Z,102494.77
2024-05-09T10:11:49.018Z,102495.02
2024-05-09T10:13:02.134Z,102489.40
2024-05-09T10:14:03.936Z,102487.82
2024-05-09T10:15:08.454Z,102486.42
2024-05-09T10:16:10.786Z,102487.35
2024-05-09T10:17:12.558Z,102485.42
2024-05-09T10:18:14.516Z,102486.40
2024-05-09T10:19:23.667Z,102490.40
2024-05-09T10:20:30.808Z,102486.27
2024-05-09T10:21:35.042Z,102482.83
2024-05-09T10:22:48.452Z,102479.20
2024-05-09T10:24:02.482Z,102481.90
2024-05-09T10:25:06.448Z,102479.55
2024-05-09T10:26:08.170Z,102477.80
2024-05-09T10:27:09.932Z,102476.51
2024-05-09T10:28:11.631Z,102476.02
2024-05-09T10:29:14.977Z,102475.11
2024-05-09T10:30:29.477Z,102474.02
2024-05-09T10:31:40.820Z,102467.77
2024-05-09T10:32:44.192Z,102468.66
2024-05-09T10:33:48.733Z,102464.58
2024-05-09T10:35:11.106Z,102466.47
2024-05-09T10:36:20.953Z,102468.94
2024-05-09T10:37:23.614Z,102468.86
2024-05-09T10:38:25.709Z,102468.73
2024-05-09T10:39:34.499Z,102466.13
2024-05-09T10:40:37.388Z,102465.06
2024-05-09T10:41:39.279Z,102462.16
2024-05-09T10:42:41.254Z,102463.27
2024-05-09T10:43:43.209Z,102458.98
2024-05-09T10:44:44.759Z,102459.21
2024-05-09T10:45:46.802Z,102456.63
2024-05-09T10:46:49.554Z,102455.63
2024-05-09T10:47:51.170Z,102459.98
2024-05-09T10:48:53.345Z,102456.09
2024-05-09T10:49:56.230Z,102457.16
2024-05-09T10:50:57.944Z,102451.96
2024-05-09T10:52:03.260Z,102451.41
2024-05-09T10:53:04.924Z,102453.02
2024-05-09T10:54:07.029Z,102449.02
2024-05-09T10:55:08.997Z,102445.70
2024-05-09T10:56:15.674Z,102446.99
2024-05-09T10:57:18.065Z,102449.37
2024-05-09T10:58:19.594Z,102446.34
2024-05-09T10:59:21.182Z,102443.02
2024-05-09T11:00:33.719Z,102445.28
2024-05-09T11:01:37.931Z,102441.38
2024-05-09T11:02:39.768Z,102441.67
2024-05-09T11:03:41.816Z,102437.48
2024-05-09T11:04:47.196Z,102438.48
2024-05-09T11:05:49.317Z,102436.58
2024-05-09T11:06:50.950Z,102431.30
2024-05-09T11:07:52.507Z,102434.90
2024-05-09T11:08:55.828Z,102432.02
2024-05-09T11:09:57.987Z,102430.77
2024-05-09T11:11:00.058Z,102435.19
2024-05-09T11:12:03.170Z,102430.14
2024-05-09T11:13:05.009Z,102425.33
2024-05-09T11:14:16.642Z,102429.27
2024-05-09T11:15:18.320Z,102430.86
2024-05-09T11:16:21.180Z,102427.04
2024-05-09T11:17:23.306Z,102426.07
2024-05-09T11:18:35.112Z,102416.52
2024-05-09T11:19:41.471Z,102417.05
2024-05-09T11:20:43.331Z,102412.45
2024-05-09T11:21:50.876Z,102412.59
2024-05-09T11:22:52.406Z,102412.21
2024-05-09T11:23:54.505Z,102406.95
2024-05-09T11:24:56.587Z,102402.55
2024-05-09T11:25:59.412Z,102403.93
2024-05-09T11:27:03.218Z,102398.45
2024-05-09T11:28:05.394Z,102400.18
2024-05-09T11:29:06.972Z,102398.48
2024-05-09T11:30:24.294Z,102397.91
2024-05-09T11:31:43.879Z,102400.27
2024-05-09T11:32:46.103Z,102399.80
2024-05-09T11:33:48.255Z,102398.79
2024-05-09T11:34:49.923Z,102397.41
2024-05-09T11:35:51.575Z,102393.05
2024-05-09T11:36:53.348Z,102387.17
2024-05-09T11:37:54.964Z,102388.26
2024-05-09T11:38:56.747Z,102383.80
2024-05-09T11:39:58.300Z,102383.48
2024-05-09T11:41:01.825Z,102387.08
2024-05-09T11:42:04.248Z,102391.09
2024-05-09T11:43:06.238Z,102395.27
2024-05-09T11:44:07.924Z,102392.52
2024-05-09T11:45:09.489Z,102390.60
2024-05-09T11:46:11.358Z,102388.76
2024-05-09T11:47:13.003Z,102382.60
2024-05-09T11:48:15.062Z,102385.23
2024-05-09T11:49:16.938Z,102387.95
2024-05-09T11:50:27.036Z,102390.33
2024-05-09T11:51:31.981Z,102388.48
2024-05-09T11:52:33.727Z,102385.27
2024-05-09T11:53:35.256Z,102386.33
2024-05-09T11:54:36.990Z,102383.98
2024-05-09T11:55:38.551Z,102383.21
2024-05-09T11:56:40.243Z,102383.58
2024-05-09T11:57:41.802Z,102384.46
2024-05-09T11:58:43.489Z,102382.59
2024-05-09T11:59:45.055Z,102380.14
2024-05-09T12:00:47.291Z,102381.84
2024-05-09T12:01:49.293Z,102380.73
2024-05-09T12:02:51.990Z,102381.06
2024-05-09T12:03:54.023Z,102383.45
2024-05-09T12:04:55.901Z,102382.97